Terminal Aerodrome Forecast
Issued by NWS

Home | Current Version | Previous Version | Text Only | Print | Product List | Glossary On
Versions: 1 2 3 4 5 6 7 8 9 10 11 12 13 14 15 16 17 18
000
FTUS42 TJSJ 011100
TAFJPS
TAF
TJPS 011137Z 0112/0212 05005KT P6SM FEW025 SCT050
     FM011430 13010KT P6SM FEW030 SCT060
     FM012230 05005KT P6SM FEW025
      AMD NOT SKED TIL 020300=

USA.gov is the U.S. government's official web portal to all federal, state and local government web resources and services.